sensor_id;sensor_type;location;lat;lon;timestamp;pressure;altitude;pressure_sealevel;temperature;humidity
58367;BME280;57745;42.524;12.052;2023-03-05T00:01:08;96084.13;;;12.99;39.96
58367;BME280;57745;42.524;12.052;2023-03-05T00:03:34;96080.94;;;12.91;40.12
58367;BME280;57745;42.524;12.052;2023-03-05T00:06:00;96073.81;;;12.84;40.07
58367;BME280;57745;42.524;12.052;2023-03-05T00:08:27;96072.13;;;12.87;39.44
58367;BME280;57745;42.524;12.052;2023-03-05T00:11:04;96073.50;;;12.82;40.03
58367;BME280;57745;42.524;12.052;2023-03-05T00:13:30;96075.19;;;12.89;39.68
58367;BME280;57745;42.524;12.052;2023-03-05T00:15:56;96071.38;;;12.86;39.61
58367;BME280;57745;42.524;12.052;2023-03-05T00:18:24;96075.91;;;12.71;39.98
58367;BME280;57745;42.524;12.052;2023-03-05T00:20:50;96076.66;;;12.72;40.22
58367;BME280;57745;42.524;12.052;2023-03-05T00:23:15;96087.88;;;12.83;40.13
58367;BME280;57745;42.524;12.052;2023-03-05T00:25:41;96083.13;;;12.74;40.27
58367;BME280;57745;42.524;12.052;2023-03-05T00:28:07;96089.88;;;13.01;39.26
58367;BME280;57745;42.524;12.052;2023-03-05T00:30:33;96088.78;;;12.89;40.04
58367;BME280;57745;42.524;12.052;2023-03-05T00:33:24;96090.28;;;12.81;40.00
58367;BME280;57745;42.524;12.052;2023-03-05T00:35:49;96090.03;;;12.97;39.97
58367;BME280;57745;42.524;12.052;2023-03-05T00:38:15;96091.16;;;12.78;40.50
58367;BME280;57745;42.524;12.052;2023-03-05T00:40:40;96086.78;;;12.71;40.45
58367;BME280;57745;42.524;12.052;2023-03-05T00:43:06;96088.75;;;12.80;40.15
58367;BME280;57745;42.524;12.052;2023-03-05T00:45:32;96083.91;;;12.75;39.59
58367;BME280;57745;42.524;12.052;2023-03-05T00:47:58;96092.13;;;12.93;40.21
58367;BME280;57745;42.524;12.052;2023-03-05T00:50:24;96082.44;;;12.83;40.01
58367;BME280;57745;42.524;12.052;2023-03-05T00:52:50;96077.94;;;12.98;40.07
58367;BME280;57745;42.524;12.052;2023-03-05T00:55:16;96076.69;;;12.90;40.18
58367;BME280;57745;42.524;12.052;2023-03-05T00:57:41;96073.94;;;12.81;39.97
58367;BME280;57745;42.524;12.052;2023-03-05T01:00:07;96084.41;;;12.82;39.62
58367;BME280;57745;42.524;12.052;2023-03-05T01:02:33;96081.22;;;12.84;40.03
58367;BME280;57745;42.524;12.052;2023-03-05T01:04:58;96079.50;;;12.68;39.93
58367;BME280;57745;42.524;12.052;2023-03-05T01:07:24;96079.81;;;12.70;40.08
58367;BME280;57745;42.524;12.052;2023-03-05T01:09:49;96075.16;;;12.80;40.39
58367;BME280;57745;42.524;12.052;2023-03-05T01:12:14;96077.44;;;12.81;39.93
58367;BME280;57745;42.524;12.052;2023-03-05T01:14:40;96069.41;;;12.78;40.16
58367;BME280;57745;42.524;12.052;2023-03-05T01:17:06;96074.81;;;12.69;40.36
58367;BME280;57745;42.524;12.052;2023-03-05T01:19:32;96065.03;;;12.80;39.89
58367;BME280;57745;42.524;12.052;2023-03-05T01:21:58;96059.84;;;12.64;40.13
58367;BME280;57745;42.524;12.052;2023-03-05T01:24:24;96059.44;;;12.84;39.99
58367;BME280;57745;42.524;12.052;2023-03-05T01:26:49;96060.16;;;12.66;40.31
58367;BME280;57745;42.524;12.052;2023-03-05T01:29:15;96065.06;;;12.49;40.34
58367;BME280;57745;42.524;12.052;2023-03-05T01:31:40;96078.44;;;12.66;40.03
58367;BME280;57745;42.524;12.052;2023-03-05T01:34:06;96068.44;;;12.63;40.36
58367;BME280;57745;42.524;12.052;2023-03-05T01:36:31;96059.72;;;12.77;39.40
58367;BME280;57745;42.524;12.052;2023-03-05T01:38:57;96051.84;;;12.70;39.47
58367;BME280;57745;42.524;12.052;2023-03-05T01:41:22;96045.66;;;12.69;39.66
58367;BME280;57745;42.524;12.052;2023-03-05T01:43:49;96041.69;;;12.61;39.74
58367;BME280;57745;42.524;12.052;2023-03-05T01:46:36;96046.34;;;12.51;39.52
58367;BME280;57745;42.524;12.052;2023-03-05T01:49:07;96042.75;;;12.64;39.65
58367;BME280;57745;42.524;12.052;2023-03-05T01:51:39;96044.88;;;12.59;39.50
58367;BME280;57745;42.524;12.052;2023-03-05T01:54:06;96046.38;;;12.61;39.53
58367;BME280;57745;42.524;12.052;2023-03-05T01:56:33;96047.09;;;12.52;39.29
58367;BME280;57745;42.524;12.052;2023-03-05T01:59:01;96031.59;;;12.71;39.60
58367;BME280;57745;42.524;12.052;2023-03-05T02:01:49;96037.81;;;12.71;39.81
58367;BME280;57745;42.524;12.052;2023-03-05T02:04:18;96038.97;;;12.61;39.68
58367;BME280;57745;42.524;12.052;2023-03-05T02:06:45;96032.16;;;12.56;39.54
58367;BME280;57745;42.524;12.052;2023-03-05T02:09:11;96037.47;;;12.60;39.74
58367;BME280;57745;42.524;12.052;2023-03-05T02:11:37;96039.72;;;12.62;39.61
58367;BME280;57745;42.524;12.052;2023-03-05T02:14:04;96036.09;;;12.55;39.24
58367;BME280;57745;42.524;12.052;2023-03-05T02:16:31;96032.56;;;12.46;39.87
58367;BME280;57745;42.524;12.052;2023-03-05T02:19:05;96034.91;;;12.75;39.51
58367;BME280;57745;42.524;12.052;2023-03-05T02:24:05;96042.41;;;12.52;39.83
58367;BME280;57745;42.524;12.052;2023-03-05T02:26:31;96029.19;;;12.73;39.06
58367;BME280;57745;42.524;12.052;2023-03-05T02:28:58;96032.16;;;12.56;39.85
58367;BME280;57745;42.524;12.052;2023-03-05T02:31:26;96033.69;;;12.57;39.78
58367;BME280;57745;42.524;12.052;2023-03-05T02:33:52;96032.78;;;12.61;39.31
58367;BME280;57745;42.524;12.052;2023-03-05T02:36:21;96031.41;;;12.56;39.84
58367;BME280;57745;42.524;12.052;2023-03-05T02:38:47;96029.31;;;12.60;39.58
58367;BME280;57745;42.524;12.052;2023-03-05T02:41:14;96024.78;;;12.66;39.30
58367;BME280;57745;42.524;12.052;2023-03-05T02:43:39;96030.22;;;12.66;40.24
58367;BME280;57745;42.524;12.052;2023-03-05T02:46:05;96021.25;;;12.47;40.22
58367;BME280;57745;42.524;12.052;2023-03-05T02:48:30;96031.50;;;12.43;40.59
58367;BME280;57745;42.524;12.052;2023-03-05T02:50:56;96026.63;;;12.38;41.04
58367;BME280;57745;42.524;12.052;2023-03-05T02:53:22;96024.91;;;12.63;40.09
58367;BME280;57745;42.524;12.052;2023-03-05T02:55:49;96030.34;;;12.63;39.88
58367;BME280;57745;42.524;12.052;2023-03-05T02:58:15;96022.69;;;12.30;41.36
58367;BME280;57745;42.524;12.052;2023-03-05T03:00:41;96025.81;;;12.59;40.38
58367;BME280;57745;42.524;12.052;2023-03-05T03:03:07;96029.44;;;12.56;40.15
58367;BME280;57745;42.524;12.052;2023-03-05T03:05:34;96028.38;;;12.54;40.32
58367;BME280;57745;42.524;12.052;2023-03-05T03:08:00;96030.97;;;12.57;40.44
58367;BME280;57745;42.524;12.052;2023-03-05T03:10:25;96021.84;;;12.42;40.37
58367;BME280;57745;42.524;12.052;2023-03-05T03:12:51;96020.53;;;12.65;40.12
58367;BME280;57745;42.524;12.052;2023-03-05T03:15:16;96020.53;;;12.56;41.05
58367;BME280;57745;42.524;12.052;2023-03-05T03:17:43;96022.78;;;12.48;40.48
58367;BME280;57745;42.524;12.052;2023-03-05T03:20:11;96016.81;;;12.32;40.65
58367;BME280;57745;42.524;12.052;2023-03-05T03:22:38;96014.75;;;12.45;40.70
58367;BME280;57745;42.524;12.052;2023-03-05T03:25:04;96016.38;;;12.42;40.51
58367;BME280;57745;42.524;12.052;2023-03-05T03:27:30;96012.75;;;12.36;40.96
58367;BME280;57745;42.524;12.052;2023-03-05T03:29:55;96009.56;;;12.38;40.76
58367;BME280;57745;42.524;12.052;2023-03-05T03:32:21;96008.13;;;12.55;40.54
58367;BME280;57745;42.524;12.052;2023-03-05T03:34:47;96013.66;;;12.42;40.04
58367;BME280;57745;42.524;12.052;2023-03-05T03:37:13;96013.09;;;12.47;40.55
58367;BME280;57745;42.524;12.052;2023-03-05T03:39:38;96014.63;;;12.48;40.21
58367;BME280;57745;42.524;12.052;2023-03-05T03:42:04;96015.94;;;12.44;40.34
58367;BME280;57745;42.524;12.052;2023-03-05T03:44:29;96016.69;;;12.35;40.29
58367;BME280;57745;42.524;12.052;2023-03-05T03:46:55;96021.06;;;12.42;40.42
58367;BME280;57745;42.524;12.052;2023-03-05T03:49:23;96013.91;;;12.26;40.83
58367;BME280;57745;42.524;12.052;2023-03-05T03:51:50;96013.66;;;12.33;40.36
58367;BME280;57745;42.524;12.052;2023-03-05T03:54:17;96010.63;;;12.31;40.29
58367;BME280;57745;42.524;12.052;2023-03-05T03:56:43;96011.25;;;12.35;40.12
58367;BME280;57745;42.524;12.052;2023-03-05T03:59:09;96011.78;;;12.21;40.66
58367;BME280;57745;42.524;12.052;2023-03-05T04:01:35;96020.31;;;12.41;40.21
58367;BME280;57745;42.524;12.052;2023-03-05T04:04:00;96019.56;;;12.41;39.70
58367;BME280;57745;42.524;12.052;2023-03-05T04:06:26;96017.63;;;12.50;40.05
58367;BME280;57745;42.524;12.052;2023-03-05T04:08:51;96022.47;;;12.46;39.89
58367;BME280;57745;42.524;12.052;2023-03-05T04:11:18;96015.50;;;12.45;39.82
58367;BME280;57745;42.524;12.052;2023-03-05T04:13:44;96015.34;;;12.49;39.87
58367;BME280;57745;42.524;12.052;2023-03-05T04:16:11;96019.97;;;12.30;40.35
58367;BME280;57745;42.524;12.052;2023-03-05T04:18:36;96014.97;;;12.29;41.04
58367;BME280;57745;42.524;12.052;2023-03-05T04:21:02;96010.19;;;12.42;40.72
58367;BME280;57745;42.524;12.052;2023-03-05T04:23:27;96016.09;;;12.49;40.50
58367;BME280;57745;42.524;12.052;2023-03-05T04:25:56;96019.41;;;12.35;40.55
58367;BME280;57745;42.524;12.052;2023-03-05T04:28:21;96025.00;;;12.41;40.73
58367;BME280;57745;42.524;12.052;2023-03-05T04:30:47;96018.25;;;12.54;40.21
58367;BME280;57745;42.524;12.052;2023-03-05T04:33:12;96010.94;;;12.33;40.61
58367;BME280;57745;42.524;12.052;2023-03-05T04:35:38;96015.63;;;12.42;40.80
58367;BME280;57745;42.524;12.052;2023-03-05T04:38:03;96010.13;;;12.23;41.04
58367;BME280;57745;42.524;12.052;2023-03-05T04:40:29;96010.16;;;12.33;40.80
58367;BME280;57745;42.524;12.052;2023-03-05T04:42:54;96016.06;;;12.40;40.97
58367;BME280;57745;42.524;12.052;2023-03-05T04:45:21;96009.41;;;12.32;41.43
58367;BME280;57745;42.524;12.052;2023-03-05T04:47:46;96014.91;;;12.50;40.47
58367;BME280;57745;42.524;12.052;2023-03-05T04:50:12;96012.53;;;12.21;41.51
58367;BME280;57745;42.524;12.052;2023-03-05T04:52:41;96018.13;;;12.27;40.87
58367;BME280;57745;42.524;12.052;2023-03-05T04:55:09;96014.19;;;12.19;41.07
58367;BME280;57745;42.524;12.052;2023-03-05T04:57:35;96017.22;;;12.21;41.15
58367;BME280;57745;42.524;12.052;2023-03-05T05:00:01;96016.03;;;12.22;41.16
58367;BME280;57745;42.524;12.052;2023-03-05T05:02:29;96015.28;;;12.31;40.57
58367;BME280;57745;42.524;12.052;2023-03-05T05:04:54;96015.16;;;12.34;40.08
58367;BME280;57745;42.524;12.052;2023-03-05T05:07:20;96020.84;;;12.27;40.90
58367;BME280;57745;42.524;12.052;2023-03-05T05:09:45;96010.94;;;12.33;41.00
58367;BME280;57745;42.524;12.052;2023-03-05T05:12:11;96010.94;;;12.33;40.65
58367;BME280;57745;42.524;12.052;2023-03-05T05:14:36;96015.91;;;12.04;41.09
58367;BME280;57745;42.524;12.052;2023-03-05T05:17:02;96014.72;;;12.05;40.64
58367;BME280;57745;42.524;12.052;2023-03-05T05:19:32;96027.09;;;12.06;40.61
58367;BME280;57745;42.524;12.052;2023-03-05T05:21:57;96023.53;;;12.18;40.53
58367;BME280;57745;42.524;12.052;2023-03-05T05:24:23;96015.91;;;12.04;40.96
58367;BME280;57745;42.524;12.052;2023-03-05T05:26:48;96013.56;;;12.15;41.03
58367;BME280;57745;42.524;12.052;2023-03-05T05:29:16;96021.34;;;12.04;40.82
58367;BME280;57745;42.524;12.052;2023-03-05T05:31:41;96017.31;;;12.08;41.26
58367;BME280;57745;42.524;12.052;2023-03-05T05:34:07;96020.16;;;12.05;40.86
58367;BME280;57745;42.524;12.052;2023-03-05T05:36:32;96018.38;;;12.11;40.54
58367;BME280;57745;42.524;12.052;2023-03-05T05:38:57;96019.28;;;12.08;40.94
58367;BME280;57745;42.524;12.052;2023-03-05T05:41:23;96016.22;;;12.06;40.77
58367;BME280;57745;42.524;12.052;2023-03-05T05:43:49;96011.16;;;12.17;39.51
58367;BME280;57745;42.524;12.052;2023-03-05T05:46:17;96019.06;;;12.02;40.31
58367;BME280;57745;42.524;12.052;2023-03-05T05:48:43;96013.50;;;12.06;40.02
58367;BME280;57745;42.524;12.052;2023-03-05T05:51:12;96017.06;;;11.94;40.86
58367;BME280;57745;42.524;12.052;2023-03-05T05:53:39;96020.44;;;11.98;40.92
58367;BME280;57745;42.524;12.052;2023-03-05T05:56:06;96023.16;;;11.98;40.29
58367;BME280;57745;42.524;12.052;2023-03-05T05:58:33;96027.59;;;12.13;40.03
58367;BME280;57745;42.524;12.052;2023-03-05T06:00:59;96023.44;;;12.00;40.89
58367;BME280;57745;42.524;12.052;2023-03-05T06:03:25;96026.63;;;11.98;40.86
58367;BME280;57745;42.524;12.052;2023-03-05T06:05:52;96027.38;;;11.99;41.11
58367;BME280;57745;42.524;12.052;2023-03-05T06:08:17;96025.91;;;12.07;40.95
58367;BME280;57745;42.524;12.052;2023-03-05T06:10:43;96032.78;;;12.20;40.57
58367;BME280;57745;42.524;12.052;2023-03-05T06:13:09;96031.22;;;11.88;41.20
58367;BME280;57745;42.524;12.052;2023-03-05T06:15:34;96029.69;;;12.09;40.66
58367;BME280;57745;42.524;12.052;2023-03-05T06:18:00;96033.47;;;12.12;40.85
58367;BME280;57745;42.524;12.052;2023-03-05T06:20:25;96027.81;;;12.28;40.56
58367;BME280;57745;42.524;12.052;2023-03-05T06:22:52;96027.38;;;11.99;41.13
58367;BME280;57745;42.524;12.052;2023-03-05T06:25:17;96028.63;;;12.07;41.24
58367;BME280;57745;42.524;12.052;2023-03-05T06:27:43;96031.38;;;12.16;40.85
58367;BME280;57745;42.524;12.052;2023-03-05T06:30:09;96034.06;;;12.07;41.38
58367;BME280;57745;42.524;12.052;2023-03-05T06:32:35;96035.31;;;12.15;41.20
58367;BME280;57745;42.524;12.052;2023-03-05T06:35:01;96034.69;;;12.11;41.52
58367;BME280;57745;42.524;12.052;2023-03-05T06:37:27;96042.88;;;12.20;41.06
58367;BME280;57745;42.524;12.052;2023-03-05T06:39:52;96032.13;;;12.16;41.20
58367;BME280;57745;42.524;12.052;2023-03-05T06:42:17;96032.72;;;12.11;41.58
58367;BME280;57745;42.524;12.052;2023-03-05T06:44:44;96032.97;;;12.04;41.65
58367;BME280;57745;42.524;12.052;2023-03-05T06:47:09;96037.13;;;12.18;41.94
58367;BME280;57745;42.524;12.052;2023-03-05T06:49:36;96045.28;;;12.18;41.61
58367;BME280;57745;42.524;12.052;2023-03-05T06:52:02;96039.31;;;12.01;41.89
58367;BME280;57745;42.524;12.052;2023-03-05T06:54:28;96042.13;;;12.19;41.75
58367;BME280;57745;42.524;12.052;2023-03-05T06:56:53;96042.19;;;12.38;41.24
58367;BME280;57745;42.524;12.052;2023-03-05T06:59:19;96055.88;;;12.25;41.82
58367;BME280;57745;42.524;12.052;2023-03-05T07:01:46;96050.44;;;12.25;42.09
58367;BME280;57745;42.524;12.052;2023-03-05T07:04:12;96049.00;;;12.33;41.71
58367;BME280;57745;42.524;12.052;2023-03-05T07:06:38;96043.94;;;12.53;41.40
58367;BME280;57745;42.524;12.052;2023-03-05T07:09:05;96048.69;;;12.31;42.11
58367;BME280;57745;42.524;12.052;2023-03-05T07:11:31;96055.63;;;12.32;42.41
58367;BME280;57745;42.524;12.052;2023-03-05T07:13:58;96059.63;;;12.49;42.27
58367;BME280;57745;42.524;12.052;2023-03-05T07:16:25;96050.66;;;12.40;42.46
58367;BME280;57745;42.524;12.052;2023-03-05T07:18:52;96052.69;;;12.48;42.69
58367;BME280;57745;42.524;12.052;2023-03-05T07:21:20;96057.06;;;12.46;42.57
58367;BME280;57745;42.524;12.052;2023-03-05T07:23:46;96056.00;;;12.52;42.47
58367;BME280;57745;42.524;12.052;2023-03-05T07:26:12;96054.69;;;12.57;42.39
58367;BME280;57745;42.524;12.052;2023-03-05T07:28:38;96067.22;;;12.54;42.91
58367;BME280;57745;42.524;12.052;2023-03-05T07:31:09;96066.06;;;12.74;42.35
58367;BME280;57745;42.524;12.052;2023-03-05T07:33:36;96058.50;;;12.69;43.00
58367;BME280;57745;42.524;12.052;2023-03-05T07:36:03;96062.94;;;12.84;42.56
58367;BME280;57745;42.524;12.052;2023-03-05T07:38:30;96062.72;;;12.70;43.02
58367;BME280;57745;42.524;12.052;2023-03-05T07:40:56;96075.47;;;12.82;42.64
58367;BME280;57745;42.524;12.052;2023-03-05T07:43:21;96076.03;;;12.77;42.41
58367;BME280;57745;42.524;12.052;2023-03-05T07:45:47;96082.97;;;12.59;43.18
58367;BME280;57745;42.524;12.052;2023-03-05T07:48:15;96084.13;;;12.99;42.32
58367;BME280;57745;42.524;12.052;2023-03-05T07:50:42;96075.81;;;12.93;42.15
58367;BME280;57745;42.524;12.052;2023-03-05T07:53:08;96069.72;;;12.89;42.90
58367;BME280;57745;42.524;12.052;2023-03-05T07:55:34;96075.25;;;12.67;43.46
58367;BME280;57745;42.524;12.052;2023-03-05T07:57:59;96073.94;;;12.81;42.91
58367;BME280;57745;42.524;12.052;2023-03-05T08:00:25;96083.53;;;13.04;42.66
58367;BME280;57745;42.524;12.052;2023-03-05T08:02:50;96074.88;;;12.87;42.47
58367;BME280;57745;42.524;12.052;2023-03-05T08:05:16;96072.91;;;12.87;42.98
58367;BME280;57745;42.524;12.052;2023-03-05T08:07:41;96072.31;;;12.83;43.16
58367;BME280;57745;42.524;12.052;2023-03-05T08:10:08;96073.94;;;12.81;43.35
58367;BME280;57745;42.524;12.052;2023-03-05T08:12:33;96077.34;;;13.03;42.98
58367;BME280;57745;42.524;12.052;2023-03-05T08:14:59;96080.06;;;13.03;42.95
58367;BME280;57745;42.524;12.052;2023-03-05T08:17:24;96072.31;;;12.83;43.61
58367;BME280;57745;42.524;12.052;2023-03-05T08:19:50;96077.34;;;13.12;42.86
58367;BME280;57745;42.524;12.052;2023-03-05T08:22:15;96075.72;;;12.66;44.97
58367;BME280;57745;42.524;12.052;2023-03-05T08:24:42;96076.81;;;12.86;43.85
58367;BME280;57745;42.524;12.052;2023-03-05T08:27:08;96080.50;;;13.11;42.54
58367;BME280;57745;42.524;12.052;2023-03-05T08:29:33;96088.22;;;13.03;43.21
58367;BME280;57745;42.524;12.052;2023-03-05T08:31:59;96071.44;;;12.95;42.46
58367;BME280;57745;42.524;12.052;2023-03-05T08:34:24;96083.97;;;13.02;42.49
58367;BME280;57745;42.524;12.052;2023-03-05T08:36:50;96076.75;;;13.08;42.81
58367;BME280;57745;42.524;12.052;2023-03-05T08:39:15;96081.16;;;13.15;41.98
58367;BME280;57745;42.524;12.052;2023-03-05T08:41:41;96081.16;;;13.15;42.73
58367;BME280;57745;42.524;12.052;2023-03-05T08:44:07;96085.28;;;13.28;41.99
58367;BME280;57745;42.524;12.052;2023-03-05T08:46:32;96085.41;;;13.25;41.34
58367;BME280;57745;42.524;12.052;2023-03-05T08:48:58;96090.09;;;13.24;41.55
58367;BME280;57745;42.524;12.052;2023-03-05T08:51:24;96088.31;;;13.30;41.77
58367;BME280;57745;42.524;12.052;2023-03-05T08:53:51;96081.34;;;13.29;42.14
58367;BME280;57745;42.524;12.052;2023-03-05T08:56:17;96082.13;;;13.57;40.59
58367;BME280;57745;42.524;12.052;2023-03-05T08:58:43;96089.38;;;13.42;40.66
58367;BME280;57745;42.524;12.052;2023-03-05T09:01:11;96082.28;;;13.54;40.54
58367;BME280;57745;42.524;12.052;2023-03-05T09:03:36;96080.59;;;13.65;40.61
58367;BME280;57745;42.524;12.052;2023-03-05T09:06:07;96088.03;;;13.56;43.07
58367;BME280;57745;42.524;12.052;2023-03-05T09:08:34;96081.22;;;13.70;42.98
58367;BME280;57745;42.524;12.052;2023-03-05T09:11:04;96080.44;;;13.51;43.02
58367;BME280;57745;42.524;12.052;2023-03-05T09:13:30;96069.09;;;13.61;42.56
58367;BME280;57745;42.524;12.052;2023-03-05T09:15:57;96069.09;;;13.71;42.87
58367;BME280;57745;42.524;12.052;2023-03-05T09:18:22;96067.25;;;13.86;42.32
58367;BME280;57745;42.524;12.052;2023-03-05T09:20:48;96068.63;;;13.90;42.72
58367;BME280;57745;42.524;12.052;2023-03-05T09:23:13;96068.34;;;13.79;42.79
58367;BME280;57745;42.524;12.052;2023-03-05T09:25:39;96071.34;;;13.90;43.45
58367;BME280;57745;42.524;12.052;2023-03-05T09:28:06;96077.41;;;13.85;43.09
58367;BME280;57745;42.524;12.052;2023-03-05T09:30:32;96073.47;;;13.77;42.59
58367;BME280;57745;42.524;12.052;2023-03-05T09:33:00;96073.63;;;13.83;42.37
58367;BME280;57745;42.524;12.052;2023-03-05T09:35:25;96079.06;;;14.01;42.51
58367;BME280;57745;42.524;12.052;2023-03-05T09:37:51;96080.31;;;13.82;42.30
58367;BME280;57745;42.524;12.052;2023-03-05T09:40:18;96069.50;;;14.06;42.95
58367;BME280;57745;42.524;12.052;2023-03-05T09:43:12;96075.25;;;14.17;41.82
58367;BME280;57745;42.524;12.052;2023-03-05T09:45:44;96074.66;;;14.03;43.03
58367;BME280;57745;42.524;12.052;2023-03-05T09:48:18;96079.38;;;13.94;41.82
58367;BME280;57745;42.524;12.052;2023-03-05T09:50:53;96066.34;;;14.07;41.90
58367;BME280;57745;42.524;12.052;2023-03-05T09:56:22;96074.38;;;13.92;42.03
58367;BME280;57745;42.524;12.052;2023-03-05T09:58:51;96072.25;;;13.96;41.76
58367;BME280;57745;42.524;12.052;2023-03-05T10:01:23;96066.63;;;14.09;41.30
58367;BME280;57745;42.524;12.052;2023-03-05T10:04:11;96066.34;;;14.07;42.23
58367;BME280;57745;42.524;12.052;2023-03-05T10:07:03;96067.38;;;14.00;41.68
58367;BME280;57745;42.524;12.052;2023-03-05T10:09:58;96070.41;;;14.21;42.44
58367;BME280;57745;42.524;12.052;2023-03-05T10:12:42;96066.19;;;14.01;41.37
58367;BME280;57745;42.524;12.052;2023-03-05T10:32:07;96067.00;;;14.35;41.53
58367;BME280;57745;42.524;12.052;2023-03-05T10:34:46;96069.91;;;14.31;41.48
58367;BME280;57745;42.524;12.052;2023-03-05T10:40:20;96068.72;;;14.14;42.08
58367;BME280;57745;42.524;12.052;2023-03-05T10:43:23;96060.16;;;14.49;42.12
58367;BME280;57745;42.524;12.052;2023-03-05T10:45:42;96062.06;;;14.15;42.13
58367;BME280;57745;42.524;12.052;2023-03-05T10:54:00;96061.88;;;14.46;42.12
58367;BME280;57745;42.524;12.052;2023-03-05T10:56:27;96066.72;;;14.24;41.64
58367;BME280;57745;42.524;12.052;2023-03-05T10:58:53;96064.44;;;14.41;41.54
58367;BME280;57745;42.524;12.052;2023-03-05T11:01:23;96062.03;;;14.33;41.50
58367;BME280;57745;42.524;12.052;2023-03-05T11:04:04;96062.94;;;14.40;41.67
58367;BME280;57745;42.524;12.052;2023-03-05T11:06:37;96058.19;;;14.49;41.25
58367;BME280;57745;42.524;12.052;2023-03-05T11:12:17;96055.97;;;14.29;41.76
58367;BME280;57745;42.524;12.052;2023-03-05T11:17:42;96046.09;;;14.41;41.68
58367;BME280;57745;42.524;12.052;2023-03-05T11:23:21;96041.06;;;14.49;41.73
58367;BME280;57745;42.524;12.052;2023-03-05T11:39:19;96021.50;;;14.50;41.66
58367;BME280;57745;42.524;12.052;2023-03-05T11:41:58;96016.94;;;14.56;41.32
58367;BME280;57745;42.524;12.052;2023-03-05T11:44:28;96008.47;;;14.54;40.94
58367;BME280;57745;42.524;12.052;2023-03-05T11:50:09;96007.28;;;14.46;41.17
58367;BME280;57745;42.524;12.052;2023-03-05T11:52:48;96008.50;;;14.45;41.15
58367;BME280;57745;42.524;12.052;2023-03-05T11:58:09;96007.09;;;14.50;41.42
58367;BME280;57745;42.524;12.052;2023-03-05T12:00:41;95997.19;;;14.61;40.98
58367;BME280;57745;42.524;12.052;2023-03-05T12:03:12;96005.09;;;14.59;41.57
58367;BME280;57745;42.524;12.052;2023-03-05T12:05:42;95998.50;;;14.42;41.46
58367;BME280;57745;42.524;12.052;2023-03-05T12:08:13;95996.66;;;14.48;40.51
58367;BME280;57745;42.524;12.052;2023-03-05T12:10:39;95988.75;;;14.50;40.64
58367;BME280;57745;42.524;12.052;2023-03-05T12:18:56;95972.00;;;14.66;41.35
58367;BME280;57745;42.524;12.052;2023-03-05T12:21:35;95965.09;;;14.56;40.46
58367;BME280;57745;42.524;12.052;2023-03-05T12:32:02;95964.41;;;14.70;41.42
58367;BME280;57745;42.524;12.052;2023-03-05T12:34:35;95961.16;;;14.57;41.08
58367;BME280;57745;42.524;12.052;2023-03-05T12:39:50;95953.06;;;14.63;41.19
58367;BME280;57745;42.524;12.052;2023-03-05T12:47:40;95954.66;;;14.79;41.21
58367;BME280;57745;42.524;12.052;2023-03-05T13:01:01;95946.69;;;14.66;41.61
58367;BME280;57745;42.524;12.052;2023-03-05T13:03:36;95949.59;;;14.62;42.04
58367;BME280;57745;42.524;12.052;2023-03-05T13:06:03;95945.47;;;14.67;42.19
58367;BME280;57745;42.524;12.052;2023-03-05T13:08:32;95941.69;;;14.64;41.63
58367;BME280;57745;42.524;12.052;2023-03-05T13:11:07;95947.28;;;14.46;42.18
58367;BME280;57745;42.524;12.052;2023-03-05T13:13:40;95950.94;;;14.67;42.11
58367;BME280;57745;42.524;12.052;2023-03-05T13:16:17;95941.00;;;14.55;42.40
58367;BME280;57745;42.524;12.052;2023-03-05T13:18:45;95943.31;;;14.38;42.99
58367;BME280;57745;42.524;12.052;2023-03-05T13:21:16;95942.09;;;14.48;42.73
58367;BME280;57745;42.524;12.052;2023-03-05T13:23:53;95939.03;;;14.55;42.93
58367;BME280;57745;42.524;12.052;2023-03-05T13:31:57;95940.56;;;14.47;43.53
58367;BME280;57745;42.524;12.052;2023-03-05T13:34:32;95940.94;;;14.40;43.48
58367;BME280;57745;42.524;12.052;2023-03-05T13:37:19;95951.91;;;14.55;43.34
58367;BME280;57745;42.524;12.052;2023-03-05T13:40:03;95944.19;;;14.53;43.39
58367;BME280;57745;42.524;12.052;2023-03-05T13:42:39;95944.81;;;14.48;43.80
58367;BME280;57745;42.524;12.052;2023-03-05T13:45:19;95945.56;;;14.72;43.57
58367;BME280;57745;42.524;12.052;2023-03-05T13:47:52;95951.16;;;14.54;44.27
58367;BME280;57745;42.524;12.052;2023-03-05T13:50:21;95951.31;;;14.51;44.84
58367;BME280;57745;42.524;12.052;2023-03-05T13:52:47;95954.81;;;14.51;45.32
58367;BME280;57745;42.524;12.052;2023-03-05T13:55:15;95947.53;;;14.48;45.48
58367;BME280;57745;42.524;12.052;2023-03-05T13:57:47;95950.94;;;14.67;45.39
58367;BME280;57745;42.524;12.052;2023-03-05T14:00:26;95948.44;;;14.54;46.66
58367;BME280;57745;42.524;12.052;2023-03-05T14:02:54;95950.88;;;14.76;46.20
58367;BME280;57745;42.524;12.052;2023-03-05T14:05:21;95947.78;;;14.59;46.39
58367;BME280;57745;42.524;12.052;2023-03-05T14:07:50;95958.44;;;14.81;46.57
58367;BME280;57745;42.524;12.052;2023-03-05T14:10:36;95959.28;;;14.63;47.42
58367;BME280;57745;42.524;12.052;2023-03-05T14:13:05;95951.22;;;14.69;47.34
58367;BME280;57745;42.524;12.052;2023-03-05T14:15:35;95952.38;;;14.77;47.25
58367;BME280;57745;42.524;12.052;2023-03-05T14:20:36;95946.00;;;14.80;48.19
58367;BME280;57745;42.524;12.052;2023-03-05T14:23:32;95949.13;;;14.64;49.46
58367;BME280;57745;42.524;12.052;2023-03-05T14:28:42;95940.31;;;14.69;48.86
58367;BME280;57745;42.524;12.052;2023-03-05T14:31:15;95947.09;;;14.73;49.54
58367;BME280;57745;42.524;12.052;2023-03-05T14:33:41;95933.91;;;14.72;49.02
58367;BME280;57745;42.524;12.052;2023-03-05T14:36:08;95940.19;;;14.63;49.73
58367;BME280;57745;42.524;12.052;2023-03-05T14:38:39;95937.63;;;14.60;50.50